sensor_id;sensor_type;location;lat;lon;timestamp;P1;durP1;ratioP1;P2;durP2;ratioP2
36191;SDS011;22233;42.708;23.360;2023-12-04T00:02:19;8.40;;;6.10;;
36191;SDS011;22233;42.708;23.360;2023-12-04T00:04:44;8.80;;;6.90;;
36191;SDS011;22233;42.708;23.360;2023-12-04T00:07:10;9.75;;;6.18;;
36191;SDS011;22233;42.708;23.360;2023-12-04T00:09:35;7.45;;;5.55;;
36191;SDS011;22233;42.708;23.360;2023-12-04T00:12:01;9.10;;;6.20;;
36191;SDS011;22233;42.708;23.360;2023-12-04T00:14:26;8.98;;;6.75;;
36191;SDS011;22233;42.708;23.360;2023-12-04T00:16:51;7.35;;;5.38;;
36191;SDS011;22233;42.708;23.360;2023-12-04T00:19:17;8.35;;;6.45;;
36191;SDS011;22233;42.708;23.360;2023-12-04T00:21:42;8.48;;;6.65;;
36191;SDS011;22233;42.708;23.360;2023-12-04T00:24:07;8.32;;;6.28;;
36191;SDS011;22233;42.708;23.360;2023-12-04T00:26:33;10.00;;;6.13;;
36191;SDS011;22233;42.708;23.360;2023-12-04T00:28:58;9.48;;;6.45;;
36191;SDS011;22233;42.708;23.360;2023-12-04T00:31:24;9.95;;;6.68;;
36191;SDS011;22233;42.708;23.360;2023-12-04T00:33:49;9.30;;;6.88;;
36191;SDS011;22233;42.708;23.360;2023-12-04T00:36:15;10.93;;;7.47;;
36191;SDS011;22233;42.708;23.360;2023-12-04T00:38:40;8.27;;;6.57;;
36191;SDS011;22233;42.708;23.360;2023-12-04T00:41:05;6.43;;;5.20;;
36191;SDS011;22233;42.708;23.360;2023-12-04T00:43:31;7.97;;;6.90;;
36191;SDS011;22233;42.708;23.360;2023-12-04T00:45:56;10.07;;;7.43;;
36191;SDS011;22233;42.708;23.360;2023-12-04T00:48:22;9.55;;;7.18;;
36191;SDS011;22233;42.708;23.360;2023-12-04T00:50:47;10.25;;;6.85;;
36191;SDS011;22233;42.708;23.360;2023-12-04T00:53:12;9.77;;;7.55;;
36191;SDS011;22233;42.708;23.360;2023-12-04T00:55:38;9.05;;;6.57;;
36191;SDS011;22233;42.708;23.360;2023-12-04T00:58:04;9.23;;;6.63;;
36191;SDS011;22233;42.708;23.360;2023-12-04T01:00:29;10.80;;;6.47;;
36191;SDS011;22233;42.708;23.360;2023-12-04T01:02:54;8.50;;;6.55;;
36191;SDS011;22233;42.708;23.360;2023-12-04T01:05:20;7.70;;;6.57;;
36191;SDS011;22233;42.708;23.360;2023-12-04T01:07:45;10.40;;;7.68;;
36191;SDS011;22233;42.708;23.360;2023-12-04T01:10:11;10.43;;;7.68;;
36191;SDS011;22233;42.708;23.360;2023-12-04T01:12:36;9.10;;;6.88;;
36191;SDS011;22233;42.708;23.360;2023-12-04T01:15:02;8.20;;;6.93;;
36191;SDS011;22233;42.708;23.360;2023-12-04T01:17:28;7.93;;;6.75;;
36191;SDS011;22233;42.708;23.360;2023-12-04T01:19:53;9.00;;;6.78;;
36191;SDS011;22233;42.708;23.360;2023-12-04T01:22:19;8.93;;;7.13;;
36191;SDS011;22233;42.708;23.360;2023-12-04T01:24:44;9.07;;;6.70;;
36191;SDS011;22233;42.708;23.360;2023-12-04T01:27:10;9.02;;;6.60;;
36191;SDS011;22233;42.708;23.360;2023-12-04T01:29:36;8.63;;;6.20;;
36191;SDS011;22233;42.708;23.360;2023-12-04T01:32:01;8.48;;;6.53;;
36191;SDS011;22233;42.708;23.360;2023-12-04T01:34:26;7.95;;;6.05;;
36191;SDS011;22233;42.708;23.360;2023-12-04T01:36:52;9.15;;;6.55;;
36191;SDS011;22233;42.708;23.360;2023-12-04T01:39:17;7.75;;;6.03;;
36191;SDS011;22233;42.708;23.360;2023-12-04T01:41:43;8.50;;;6.68;;
36191;SDS011;22233;42.708;23.360;2023-12-04T01:44:08;7.18;;;5.00;;
36191;SDS011;22233;42.708;23.360;2023-12-04T01:46:33;9.52;;;6.47;;
36191;SDS011;22233;42.708;23.360;2023-12-04T01:48:59;9.98;;;6.95;;
36191;SDS011;22233;42.708;23.360;2023-12-04T01:51:26;7.93;;;6.07;;
36191;SDS011;22233;42.708;23.360;2023-12-04T01:53:52;9.05;;;5.63;;
36191;SDS011;22233;42.708;23.360;2023-12-04T01:56:18;5.72;;;4.95;;
36191;SDS011;22233;42.708;23.360;2023-12-04T01:58:45;7.72;;;6.45;;
36191;SDS011;22233;42.708;23.360;2023-12-04T02:01:11;6.85;;;5.22;;
36191;SDS011;22233;42.708;23.360;2023-12-04T02:03:37;8.55;;;6.85;;
36191;SDS011;22233;42.708;23.360;2023-12-04T02:06:02;8.55;;;5.50;;
36191;SDS011;22233;42.708;23.360;2023-12-04T02:08:29;7.82;;;5.78;;
36191;SDS011;22233;42.708;23.360;2023-12-04T02:10:55;9.50;;;5.93;;
36191;SDS011;22233;42.708;23.360;2023-12-04T02:13:20;9.35;;;5.93;;
36191;SDS011;22233;42.708;23.360;2023-12-04T02:15:46;12.70;;;5.93;;
36191;SDS011;22233;42.708;23.360;2023-12-04T02:18:17;5.88;;;4.82;;
36191;SDS011;22233;42.708;23.360;2023-12-04T02:20:43;8.32;;;5.60;;
36191;SDS011;22233;42.708;23.360;2023-12-04T02:23:09;9.32;;;6.25;;
36191;SDS011;22233;42.708;23.360;2023-12-04T02:25:34;7.68;;;5.60;;
36191;SDS011;22233;42.708;23.360;2023-12-04T02:28:01;8.50;;;5.35;;
36191;SDS011;22233;42.708;23.360;2023-12-04T02:30:30;7.60;;;5.88;;
36191;SDS011;22233;42.708;23.360;2023-12-04T02:32:57;10.50;;;7.13;;
36191;SDS011;22233;42.708;23.360;2023-12-04T02:35:24;8.43;;;6.68;;
36191;SDS011;22233;42.708;23.360;2023-12-04T02:37:52;7.78;;;5.68;;
36191;SDS011;22233;42.708;23.360;2023-12-04T02:40:18;8.52;;;6.07;;
36191;SDS011;22233;42.708;23.360;2023-12-04T02:42:44;6.53;;;5.00;;
36191;SDS011;22233;42.708;23.360;2023-12-04T02:45:10;7.80;;;5.93;;
36191;SDS011;22233;42.708;23.360;2023-12-04T02:47:35;7.75;;;5.78;;
36191;SDS011;22233;42.708;23.360;2023-12-04T02:50:00;7.38;;;5.80;;
36191;SDS011;22233;42.708;23.360;2023-12-04T02:52:26;8.35;;;5.55;;
36191;SDS011;22233;42.708;23.360;2023-12-04T02:54:51;8.32;;;5.28;;
36191;SDS011;22233;42.708;23.360;2023-12-04T02:57:17;8.50;;;5.82;;
36191;SDS011;22233;42.708;23.360;2023-12-04T02:59:42;8.60;;;6.30;;
36191;SDS011;22233;42.708;23.360;2023-12-04T03:02:07;7.05;;;5.75;;
36191;SDS011;22233;42.708;23.360;2023-12-04T03:04:33;9.02;;;5.93;;
36191;SDS011;22233;42.708;23.360;2023-12-04T03:06:59;7.63;;;6.00;;
36191;SDS011;22233;42.708;23.360;2023-12-04T03:09:25;5.85;;;4.95;;
36191;SDS011;22233;42.708;23.360;2023-12-04T03:11:50;8.75;;;6.45;;
36191;SDS011;22233;42.708;23.360;2023-12-04T03:14:16;7.88;;;6.00;;
36191;SDS011;22233;42.708;23.360;2023-12-04T03:16:41;6.93;;;4.65;;
36191;SDS011;22233;42.708;23.360;2023-12-04T03:19:06;8.77;;;5.97;;
36191;SDS011;22233;42.708;23.360;2023-12-04T03:21:32;7.65;;;4.82;;
36191;SDS011;22233;42.708;23.360;2023-12-04T03:23:57;8.52;;;5.15;;
36191;SDS011;22233;42.708;23.360;2023-12-04T03:26:23;8.48;;;6.95;;
36191;SDS011;22233;42.708;23.360;2023-12-04T03:28:48;8.65;;;5.97;;
36191;SDS011;22233;42.708;23.360;2023-12-04T03:31:14;11.70;;;6.78;;
36191;SDS011;22233;42.708;23.360;2023-12-04T03:33:39;7.10;;;5.63;;
36191;SDS011;22233;42.708;23.360;2023-12-04T03:36:05;7.22;;;5.43;;
36191;SDS011;22233;42.708;23.360;2023-12-04T03:38:30;10.43;;;6.63;;
36191;SDS011;22233;42.708;23.360;2023-12-04T03:40:56;9.48;;;6.95;;
36191;SDS011;22233;42.708;23.360;2023-12-04T03:43:21;9.13;;;6.85;;
36191;SDS011;22233;42.708;23.360;2023-12-04T03:45:47;8.73;;;6.65;;
36191;SDS011;22233;42.708;23.360;2023-12-04T03:48:12;7.70;;;6.10;;
36191;SDS011;22233;42.708;23.360;2023-12-04T03:50:37;7.50;;;5.93;;
36191;SDS011;22233;42.708;23.360;2023-12-04T03:53:03;7.63;;;5.47;;
36191;SDS011;22233;42.708;23.360;2023-12-04T03:55:28;10.45;;;6.40;;
36191;SDS011;22233;42.708;23.360;2023-12-04T03:57:54;8.43;;;5.53;;
36191;SDS011;22233;42.708;23.360;2023-12-04T04:02:47;7.43;;;4.25;;
36191;SDS011;22233;42.708;23.360;2023-12-04T04:05:13;8.15;;;6.15;;
36191;SDS011;22233;42.708;23.360;2023-12-04T04:07:39;6.75;;;5.60;;
36191;SDS011;22233;42.708;23.360;2023-12-04T04:10:04;8.70;;;6.00;;
36191;SDS011;22233;42.708;23.360;2023-12-04T04:12:30;5.65;;;4.47;;
36191;SDS011;22233;42.708;23.360;2023-12-04T04:14:56;7.55;;;5.70;;
36191;SDS011;22233;42.708;23.360;2023-12-04T04:17:22;7.55;;;5.25;;
36191;SDS011;22233;42.708;23.360;2023-12-04T04:19:50;7.82;;;6.13;;
36191;SDS011;22233;42.708;23.360;2023-12-04T04:22:16;7.07;;;5.53;;
36191;SDS011;22233;42.708;23.360;2023-12-04T04:24:41;6.63;;;5.85;;
36191;SDS011;22233;42.708;23.360;2023-12-04T04:27:06;7.72;;;5.63;;
36191;SDS011;22233;42.708;23.360;2023-12-04T04:29:32;8.77;;;6.25;;
36191;SDS011;22233;42.708;23.360;2023-12-04T04:31:57;9.50;;;6.85;;
36191;SDS011;22233;42.708;23.360;2023-12-04T04:34:22;11.98;;;7.05;;
36191;SDS011;22233;42.708;23.360;2023-12-04T04:36:48;9.65;;;5.78;;
36191;SDS011;22233;42.708;23.360;2023-12-04T04:39:13;8.73;;;6.28;;
36191;SDS011;22233;42.708;23.360;2023-12-04T04:41:39;8.65;;;6.38;;
36191;SDS011;22233;42.708;23.360;2023-12-04T04:44:05;7.97;;;5.88;;
36191;SDS011;22233;42.708;23.360;2023-12-04T04:46:31;7.72;;;6.13;;
36191;SDS011;22233;42.708;23.360;2023-12-04T04:48:56;9.23;;;5.70;;
36191;SDS011;22233;42.708;23.360;2023-12-04T04:51:22;8.45;;;5.80;;
36191;SDS011;22233;42.708;23.360;2023-12-04T04:53:48;7.50;;;4.95;;
36191;SDS011;22233;42.708;23.360;2023-12-04T04:56:13;7.50;;;5.00;;
36191;SDS011;22233;42.708;23.360;2023-12-04T04:58:39;7.53;;;5.60;;
36191;SDS011;22233;42.708;23.360;2023-12-04T05:01:05;7.32;;;5.07;;
36191;SDS011;22233;42.708;23.360;2023-12-04T05:03:30;6.93;;;5.63;;
36191;SDS011;22233;42.708;23.360;2023-12-04T05:05:56;9.88;;;5.82;;
36191;SDS011;22233;42.708;23.360;2023-12-04T05:08:21;7.05;;;5.95;;
36191;SDS011;22233;42.708;23.360;2023-12-04T05:10:46;8.55;;;5.78;;
36191;SDS011;22233;42.708;23.360;2023-12-04T05:13:12;10.05;;;7.57;;
36191;SDS011;22233;42.708;23.360;2023-12-04T05:15:37;7.57;;;5.70;;
36191;SDS011;22233;42.708;23.360;2023-12-04T05:18:02;8.25;;;6.15;;
36191;SDS011;22233;42.708;23.360;2023-12-04T05:20:28;8.85;;;6.43;;
36191;SDS011;22233;42.708;23.360;2023-12-04T05:22:53;8.02;;;5.45;;
36191;SDS011;22233;42.708;23.360;2023-12-04T05:25:19;9.65;;;6.05;;
36191;SDS011;22233;42.708;23.360;2023-12-04T05:27:44;6.60;;;5.97;;
36191;SDS011;22233;42.708;23.360;2023-12-04T05:30:11;8.00;;;6.13;;
36191;SDS011;22233;42.708;23.360;2023-12-04T05:32:36;5.80;;;4.95;;
36191;SDS011;22233;42.708;23.360;2023-12-04T05:35:02;6.45;;;5.28;;
36191;SDS011;22233;42.708;23.360;2023-12-04T05:37:27;7.90;;;5.38;;
36191;SDS011;22233;42.708;23.360;2023-12-04T05:39:53;6.38;;;5.20;;
36191;SDS011;22233;42.708;23.360;2023-12-04T05:42:19;9.70;;;5.40;;
36191;SDS011;22233;42.708;23.360;2023-12-04T05:44:44;7.47;;;5.30;;
36191;SDS011;22233;42.708;23.360;2023-12-04T05:47:10;7.70;;;5.75;;
36191;SDS011;22233;42.708;23.360;2023-12-04T05:49:35;10.07;;;6.07;;
36191;SDS011;22233;42.708;23.360;2023-12-04T05:52:00;9.25;;;6.68;;
36191;SDS011;22233;42.708;23.360;2023-12-04T05:54:26;8.10;;;5.93;;
36191;SDS011;22233;42.708;23.360;2023-12-04T05:56:51;10.05;;;5.82;;
36191;SDS011;22233;42.708;23.360;2023-12-04T05:59:16;8.88;;;6.70;;
36191;SDS011;22233;42.708;23.360;2023-12-04T06:01:42;9.60;;;6.47;;
36191;SDS011;22233;42.708;23.360;2023-12-04T06:04:07;8.35;;;6.63;;
36191;SDS011;22233;42.708;23.360;2023-12-04T06:06:33;8.50;;;6.05;;
36191;SDS011;22233;42.708;23.360;2023-12-04T06:08:58;8.00;;;5.82;;
36191;SDS011;22233;42.708;23.360;2023-12-04T06:11:23;7.82;;;6.50;;
36191;SDS011;22233;42.708;23.360;2023-12-04T06:13:49;7.88;;;5.82;;
36191;SDS011;22233;42.708;23.360;2023-12-04T06:16:14;6.90;;;5.22;;
36191;SDS011;22233;42.708;23.360;2023-12-04T06:18:40;9.02;;;6.90;;
36191;SDS011;22233;42.708;23.360;2023-12-04T06:21:05;7.97;;;5.20;;
36191;SDS011;22233;42.708;23.360;2023-12-04T06:23:31;8.32;;;5.75;;
36191;SDS011;22233;42.708;23.360;2023-12-04T06:25:57;8.20;;;5.28;;
36191;SDS011;22233;42.708;23.360;2023-12-04T06:28:22;8.52;;;6.03;;
36191;SDS011;22233;42.708;23.360;2023-12-04T06:30:48;8.85;;;5.53;;
36191;SDS011;22233;42.708;23.360;2023-12-04T06:33:14;9.05;;;6.47;;
36191;SDS011;22233;42.708;23.360;2023-12-04T06:35:40;6.95;;;5.45;;
36191;SDS011;22233;42.708;23.360;2023-12-04T06:38:06;9.02;;;6.28;;
36191;SDS011;22233;42.708;23.360;2023-12-04T06:40:32;7.95;;;5.10;;
36191;SDS011;22233;42.708;23.360;2023-12-04T06:42:58;7.75;;;6.03;;
36191;SDS011;22233;42.708;23.360;2023-12-04T06:45:24;8.23;;;5.82;;
36191;SDS011;22233;42.708;23.360;2023-12-04T06:47:50;6.60;;;5.60;;
36191;SDS011;22233;42.708;23.360;2023-12-04T06:50:16;7.22;;;5.78;;
36191;SDS011;22233;42.708;23.360;2023-12-04T06:52:42;7.97;;;5.82;;
36191;SDS011;22233;42.708;23.360;2023-12-04T06:55:07;10.60;;;6.20;;
36191;SDS011;22233;42.708;23.360;2023-12-04T06:57:33;8.82;;;6.35;;
36191;SDS011;22233;42.708;23.360;2023-12-04T06:59:59;9.57;;;6.30;;
36191;SDS011;22233;42.708;23.360;2023-12-04T07:02:24;8.13;;;5.82;;
36191;SDS011;22233;42.708;23.360;2023-12-04T07:04:50;9.55;;;6.07;;
36191;SDS011;22233;42.708;23.360;2023-12-04T07:07:15;7.38;;;5.93;;
36191;SDS011;22233;42.708;23.360;2023-12-04T07:09:41;6.57;;;5.35;;
36191;SDS011;22233;42.708;23.360;2023-12-04T07:12:06;9.15;;;5.45;;
36191;SDS011;22233;42.708;23.360;2023-12-04T07:14:32;8.77;;;6.38;;
36191;SDS011;22233;42.708;23.360;2023-12-04T07:16:58;8.48;;;5.90;;
36191;SDS011;22233;42.708;23.360;2023-12-04T07:19:25;7.40;;;5.50;;
36191;SDS011;22233;42.708;23.360;2023-12-04T07:21:51;9.27;;;6.18;;
36191;SDS011;22233;42.708;23.360;2023-12-04T07:24:17;8.45;;;6.32;;
36191;SDS011;22233;42.708;23.360;2023-12-04T07:26:42;9.57;;;5.88;;
36191;SDS011;22233;42.708;23.360;2023-12-04T07:29:08;9.07;;;6.53;;
36191;SDS011;22233;42.708;23.360;2023-12-04T07:31:33;8.15;;;6.25;;
36191;SDS011;22233;42.708;23.360;2023-12-04T07:33:59;9.88;;;6.22;;
36191;SDS011;22233;42.708;23.360;2023-12-04T07:36:26;8.98;;;5.95;;
36191;SDS011;22233;42.708;23.360;2023-12-04T07:38:52;7.63;;;5.65;;
36191;SDS011;22233;42.708;23.360;2023-12-04T07:41:18;6.47;;;5.28;;
36191;SDS011;22233;42.708;23.360;2023-12-04T07:43:44;7.97;;;6.07;;
36191;SDS011;22233;42.708;23.360;2023-12-04T07:46:10;9.13;;;6.07;;
36191;SDS011;22233;42.708;23.360;2023-12-04T07:48:36;8.63;;;5.57;;
36191;SDS011;22233;42.708;23.360;2023-12-04T07:51:02;6.32;;;5.05;;
36191;SDS011;22233;42.708;23.360;2023-12-04T07:53:27;9.80;;;6.10;;
36191;SDS011;22233;42.708;23.360;2023-12-04T07:55:52;9.48;;;5.45;;
36191;SDS011;22233;42.708;23.360;2023-12-04T07:58:18;7.60;;;5.75;;
36191;SDS011;22233;42.708;23.360;2023-12-04T08:00:44;8.55;;;5.68;;
36191;SDS011;22233;42.708;23.360;2023-12-04T08:03:09;8.20;;;6.65;;
36191;SDS011;22233;42.708;23.360;2023-12-04T08:05:35;8.25;;;6.10;;
36191;SDS011;22233;42.708;23.360;2023-12-04T08:08:00;6.45;;;5.55;;
36191;SDS011;22233;42.708;23.360;2023-12-04T08:10:25;8.32;;;6.30;;
36191;SDS011;22233;42.708;23.360;2023-12-04T08:12:51;8.60;;;6.30;;
36191;SDS011;22233;42.708;23.360;2023-12-04T08:15:17;6.70;;;5.30;;
36191;SDS011;22233;42.708;23.360;2023-12-04T08:17:42;7.47;;;5.32;;
36191;SDS011;22233;42.708;23.360;2023-12-04T08:20:08;6.22;;;4.82;;
36191;SDS011;22233;42.708;23.360;2023-12-04T08:22:38;7.75;;;5.95;;
36191;SDS011;22233;42.708;23.360;2023-12-04T08:25:05;8.38;;;5.75;;
36191;SDS011;22233;42.708;23.360;2023-12-04T08:27:32;6.38;;;5.22;;
36191;SDS011;22233;42.708;23.360;2023-12-04T08:29:57;5.82;;;4.57;;
36191;SDS011;22233;42.708;23.360;2023-12-04T08:32:23;6.03;;;4.90;;
36191;SDS011;22233;42.708;23.360;2023-12-04T08:34:48;7.53;;;4.57;;
36191;SDS011;22233;42.708;23.360;2023-12-04T08:37:14;7.65;;;5.18;;
36191;SDS011;22233;42.708;23.360;2023-12-04T08:39:39;6.20;;;4.60;;
36191;SDS011;22233;42.708;23.360;2023-12-04T08:42:05;6.97;;;5.00;;
36191;SDS011;22233;42.708;23.360;2023-12-04T08:44:30;7.35;;;5.30;;
36191;SDS011;22233;42.708;23.360;2023-12-04T08:46:55;8.35;;;5.43;;
36191;SDS011;22233;42.708;23.360;2023-12-04T08:49:22;6.57;;;5.22;;
36191;SDS011;22233;42.708;23.360;2023-12-04T08:51:48;6.78;;;5.43;;
36191;SDS011;22233;42.708;23.360;2023-12-04T08:54:17;8.55;;;6.05;;
36191;SDS011;22233;42.708;23.360;2023-12-04T08:56:43;7.43;;;5.60;;
36191;SDS011;22233;42.708;23.360;2023-12-04T08:59:09;8.95;;;5.55;;
36191;SDS011;22233;42.708;23.360;2023-12-04T09:01:35;7.35;;;5.63;;
36191;SDS011;22233;42.708;23.360;2023-12-04T09:04:00;7.55;;;6.13;;
36191;SDS011;22233;42.708;23.360;2023-12-04T09:06:25;9.20;;;6.10;;
36191;SDS011;22233;42.708;23.360;2023-12-04T09:08:51;7.70;;;6.10;;
36191;SDS011;22233;42.708;23.360;2023-12-04T09:11:16;6.55;;;5.13;;
36191;SDS011;22233;42.708;23.360;2023-12-04T09:13:41;8.05;;;5.53;;
36191;SDS011;22233;42.708;23.360;2023-12-04T09:16:07;5.75;;;5.07;;
36191;SDS011;22233;42.708;23.360;2023-12-04T09:18:33;5.55;;;4.25;;
36191;SDS011;22233;42.708;23.360;2023-12-04T09:20:59;7.45;;;5.32;;
36191;SDS011;22233;42.708;23.360;2023-12-04T09:23:24;6.90;;;5.20;;
36191;SDS011;22233;42.708;23.360;2023-12-04T09:25:50;6.65;;;5.22;;
36191;SDS011;22233;42.708;23.360;2023-12-04T09:28:15;5.35;;;4.47;;
36191;SDS011;22233;42.708;23.360;2023-12-04T09:30:41;5.65;;;4.88;;
36191;SDS011;22233;42.708;23.360;2023-12-04T09:33:07;5.22;;;4.25;;
36191;SDS011;22233;42.708;23.360;2023-12-04T09:35:32;5.80;;;5.20;;
36191;SDS011;22233;42.708;23.360;2023-12-04T09:37:58;6.15;;;5.32;;
36191;SDS011;22233;42.708;23.360;2023-12-04T09:40:23;7.85;;;5.00;;
36191;SDS011;22233;42.708;23.360;2023-12-04T09:42:49;9.43;;;6.43;;
36191;SDS011;22233;42.708;23.360;2023-12-04T09:45:16;6.75;;;5.10;;
36191;SDS011;22233;42.708;23.360;2023-12-04T09:47:43;6.07;;;5.07;;
36191;SDS011;22233;42.708;23.360;2023-12-04T09:50:09;7.13;;;4.93;;
36191;SDS011;22233;42.708;23.360;2023-12-04T09:52:35;8.32;;;5.80;;
36191;SDS011;22233;42.708;23.360;2023-12-04T09:55:01;10.82;;;6.72;;
36191;SDS011;22233;42.708;23.360;2023-12-04T09:57:26;7.10;;;5.35;;
36191;SDS011;22233;42.708;23.360;2023-12-04T09:59:52;7.63;;;5.07;;
36191;SDS011;22233;42.708;23.360;2023-12-04T10:02:19;12.10;;;6.88;;
36191;SDS011;22233;42.708;23.360;2023-12-04T10:04:44;10.07;;;5.30;;
36191;SDS011;22233;42.708;23.360;2023-12-04T10:07:11;8.43;;;6.07;;
36191;SDS011;22233;42.708;23.360;2023-12-04T10:09:36;7.80;;;5.75;;
36191;SDS011;22233;42.708;23.360;2023-12-04T10:12:02;8.77;;;5.82;;
36191;SDS011;22233;42.708;23.360;2023-12-04T10:14:28;7.50;;;5.60;;
36191;SDS011;22233;42.708;23.360;2023-12-04T10:16:53;8.57;;;6.00;;
36191;SDS011;22233;42.708;23.360;2023-12-04T10:19:25;14.93;;;6.47;;
36191;SDS011;22233;42.708;23.360;2023-12-04T10:21:52;10.05;;;6.60;;
36191;SDS011;22233;42.708;23.360;2023-12-04T10:24:30;8.35;;;5.88;;
36191;SDS011;22233;42.708;23.360;2023-12-04T10:26:55;7.50;;;6.45;;
36191;SDS011;22233;42.708;23.360;2023-12-04T10:29:21;7.20;;;6.00;;
36191;SDS011;22233;42.708;23.360;2023-12-04T10:31:47;14.45;;;6.53;;
36191;SDS011;22233;42.708;23.360;2023-12-04T10:34:15;8.77;;;6.25;;
36191;SDS011;22233;42.708;23.360;2023-12-04T10:36:41;9.55;;;6.55;;
36191;SDS011;22233;42.708;23.360;2023-12-04T10:39:06;7.25;;;5.75;;
36191;SDS011;22233;42.708;23.360;2023-12-04T10:41:31;9.93;;;6.82;;
36191;SDS011;22233;42.708;23.360;2023-12-04T10:43:57;8.80;;;6.57;;
36191;SDS011;22233;42.708;23.360;2023-12-04T10:46:26;11.35;;;7.15;;
36191;SDS011;22233;42.708;23.360;2023-12-04T10:48:52;8.50;;;6.85;;
36191;SDS011;22233;42.708;23.360;2023-12-04T10:51:18;8.73;;;6.07;;
36191;SDS011;22233;42.708;23.360;2023-12-04T10:53:48;10.38;;;7.30;;
36191;SDS011;22233;42.708;23.360;2023-12-04T10:56:15;9.23;;;6.95;;
36191;SDS011;22233;42.708;23.360;2023-12-04T10:58:45;8.98;;;5.78;;
36191;SDS011;22233;42.708;23.360;2023-12-04T11:01:15;11.13;;;6.43;;
36191;SDS011;22233;42.708;23.360;2023-12-04T11:03:49;7.53;;;6.40;;
36191;SDS011;22233;42.708;23.360;2023-12-04T11:06:18;9.45;;;6.75;;
36191;SDS011;22233;42.708;23.360;2023-12-04T11:08:47;10.73;;;6.90;;
36191;SDS011;22233;42.708;23.360;2023-12-04T11:11:15;8.20;;;6.28;;
36191;SDS011;22233;42.708;23.360;2023-12-04T11:13:44;8.95;;;6.40;;
36191;SDS011;22233;42.708;23.360;2023-12-04T11:18:56;8.85;;;7.00;;
36191;SDS011;22233;42.708;23.360;2023-12-04T11:21:29;10.60;;;7.13;;
36191;SDS011;22233;42.708;23.360;2023-12-04T11:23:57;9.70;;;7.10;;
36191;SDS011;22233;42.708;23.360;2023-12-04T11:26:23;8.32;;;6.95;;
36191;SDS011;22233;42.708;23.360;2023-12-04T11:28:50;8.50;;;7.07;;
36191;SDS011;22233;42.708;23.360;2023-12-04T11:31:17;8.82;;;7.00;;
36191;SDS011;22233;42.708;23.360;2023-12-04T11:33:42;12.85;;;8.25;;
36191;SDS011;22233;42.708;23.360;2023-12-04T11:36:08;11.30;;;7.25;;
36191;SDS011;22233;42.708;23.360;2023-12-04T11:38:38;9.32;;;7.53;;
36191;SDS011;22233;42.708;23.360;2023-12-04T11:41:20;10.80;;;7.85;;
36191;SDS011;22233;42.708;23.360;2023-12-04T11:43:47;9.48;;;7.22;;
36191;SDS011;22233;42.708;23.360;2023-12-04T11:46:13;8.63;;;7.13;;
36191;SDS011;22233;42.708;23.360;2023-12-04T11:48:45;14.40;;;7.18;;
36191;SDS011;22233;42.708;23.360;2023-12-04T11:51:12;11.27;;;8.82;;
36191;SDS011;22233;42.708;23.360;2023-12-04T11:54:00;9.15;;;7.10;;
36191;SDS011;22233;42.708;23.360;2023-12-04T11:56:25;10.38;;;6.97;;
36191;SDS011;22233;42.708;23.360;2023-12-04T11:58:51;8.38;;;6.53;;
36191;SDS011;22233;42.708;23.360;2023-12-04T12:01:20;9.90;;;6.78;;
36191;SDS011;22233;42.708;23.360;2023-12-04T12:03:49;9.57;;;6.88;;
36191;SDS011;22233;42.708;23.360;2023-12-04T12:06:15;9.77;;;7.35;;
36191;SDS011;22233;42.708;23.360;2023-12-04T12:08:41;10.95;;;7.57;;
36191;SDS011;22233;42.708;23.360;2023-12-04T12:11:07;8.55;;;6.90;;
36191;SDS011;22233;42.708;23.360;2023-12-04T12:13:32;8.77;;;6.95;;
36191;SDS011;22233;42.708;23.360;2023-12-04T12:15:58;9.23;;;6.30;;
36191;SDS011;22233;42.708;23.360;2023-12-04T12:18:24;9.93;;;7.13;;
36191;SDS011;22233;42.708;23.360;2023-12-04T12:20:49;9.68;;;7.22;;
36191;SDS011;22233;42.708;23.360;2023-12-04T12:23:15;9.82;;;7.88;;
36191;SDS011;22233;42.708;23.360;2023-12-04T12:25:41;9.02;;;7.40;;
36191;SDS011;22233;42.708;23.360;2023-12-04T12:28:06;10.73;;;8.02;;
36191;SDS011;22233;42.708;23.360;2023-12-04T12:30:33;9.93;;;7.80;;
36191;SDS011;22233;42.708;23.360;2023-12-04T12:32:58;10.65;;;7.72;;
36191;SDS011;22233;42.708;23.360;2023-12-04T12:35:24;8.25;;;7.00;;
36191;SDS011;22233;42.708;23.360;2023-12-04T12:37:50;9.63;;;7.32;;
36191;SDS011;22233;42.708;23.360;2023-12-04T12:40:20;10.60;;;8.13;;
36191;SDS011;22233;42.708;23.360;2023-12-04T12:42:46;11.18;;;8.27;;
36191;SDS011;22233;42.708;23.360;2023-12-04T12:45:11;10.40;;;7.97;;
36191;SDS011;22233;42.708;23.360;2023-12-04T12:47:37;9.40;;;7.25;;
36191;SDS011;22233;42.708;23.360;2023-12-04T12:50:07;9.25;;;7.68;;
36191;SDS011;22233;42.708;23.360;2023-12-04T12:52:35;9.95;;;6.50;;
36191;SDS011;22233;42.708;23.360;2023-12-04T12:55:00;7.82;;;6.28;;
36191;SDS011;22233;42.708;23.360;2023-12-04T12:57:25;8.90;;;7.32;;
36191;SDS011;22233;42.708;23.360;2023-12-04T12:59:52;8.60;;;6.63;;
36191;SDS011;22233;42.708;23.360;2023-12-04T13:02:17;10.02;;;7.60;;
36191;SDS011;22233;42.708;23.360;2023-12-04T13:04:45;9.65;;;7.40;;
36191;SDS011;22233;42.708;23.360;2023-12-04T13:07:10;11.68;;;7.53;;
36191;SDS011;22233;42.708;23.360;2023-12-04T13:09:36;9.30;;;7.55;;
36191;SDS011;22233;42.708;23.360;2023-12-04T13:12:05;11.65;;;7.75;;
36191;SDS011;22233;42.708;23.360;2023-12-04T13:14:31;12.50;;;8.05;;
36191;SDS011;22233;42.708;23.360;2023-12-04T13:16:59;11.00;;;7.68;;
36191;SDS011;22233;42.708;23.360;2023-12-04T13:19:26;16.83;;;8.13;;
36191;SDS011;22233;42.708;23.360;2023-12-04T13:21:52;14.52;;;7.93;;
36191;SDS011;22233;42.708;23.360;2023-12-04T13:24:17;10.55;;;7.35;;
36191;SDS011;22233;42.708;23.360;2023-12-04T13:26:43;10.30;;;7.88;;
36191;SDS011;22233;42.708;23.360;2023-12-04T13:29:11;9.70;;;7.60;;
36191;SDS011;22233;42.708;23.360;2023-12-04T13:31:42;12.65;;;7.80;;
36191;SDS011;22233;42.708;23.360;2023-12-04T13:34:07;10.68;;;8.40;;
36191;SDS011;22233;42.708;23.360;2023-12-04T13:36:33;10.82;;;7.63;;
36191;SDS011;22233;42.708;23.360;2023-12-04T13:39:01;10.27;;;7.10;;
36191;SDS011;22233;42.708;23.360;2023-12-04T13:41:27;13.10;;;7.72;;
36191;SDS011;22233;42.708;23.360;2023-12-04T13:44:11;9.98;;;7.40;;
36191;SDS011;22233;42.708;23.360;2023-12-04T13:46:39;9.68;;;7.43;;
36191;SDS011;22233;42.708;23.360;2023-12-04T13:49:04;12.27;;;7.38;;
36191;SDS011;22233;42.708;23.360;2023-12-04T13:51:30;9.38;;;6.78;;
36191;SDS011;22233;42.708;23.360;2023-12-04T13:53:56;10.68;;;7.53;;
36191;SDS011;22233;42.708;23.360;2023-12-04T13:56:27;9.35;;;7.30;;
36191;SDS011;22233;42.708;23.360;2023-12-04T13:59:08;11.25;;;7.70;;
36191;SDS011;22233;42.708;23.360;2023-12-04T14:01:42;9.52;;;6.95;;
36191;SDS011;22233;42.708;23.360;2023-12-04T14:04:07;11.98;;;7.40;;
36191;SDS011;22233;42.708;23.360;2023-12-04T14:06:34;11.83;;;7.20;;
36191;SDS011;22233;42.708;23.360;2023-12-04T14:08:59;9.68;;;6.70;;
36191;SDS011;22233;42.708;23.360;2023-12-04T14:11:25;8.30;;;6.43;;
36191;SDS011;22233;42.708;23.360;2023-12-04T14:13:50;9.45;;;7.30;;
36191;SDS011;22233;42.708;23.360;2023-12-04T14:16:16;8.50;;;6.13;;
36191;SDS011;22233;42.708;23.360;2023-12-04T14:18:41;9.57;;;6.70;;
36191;SDS011;22233;42.708;23.360;2023-12-04T14:21:10;9.27;;;7.28;;
36191;SDS011;22233;42.708;23.360;2023-12-04T14:23:35;11.00;;;6.78;;
36191;SDS011;22233;42.708;23.360;2023-12-04T14:26:01;8.93;;;6.80;;
36191;SDS011;22233;42.708;23.360;2023-12-04T14:28:27;8.75;;;6.05;;
36191;SDS011;22233;42.708;23.360;2023-12-04T14:30:53;10.75;;;7.25;;
36191;SDS011;22233;42.708;23.360;2023-12-04T14:33:19;8.85;;;7.00;;